TAF Text Data
IDs:
Format:
Raw Decoded Include METAR

Data at: 1622 UTC 20 May 2022

VDSR 201600Z /////KT 9000 SCT015 SCT040 26/25 Q////

TAF VDSR 201100Z 2012/2106 29008KT 9999 SCT017 SCT040
  TEMPO 2012/2017 29016G28KT 5000 TSRA SCT015 FEW017CB BKN040